createdAt,value
2022-10-13T00:00:31.352Z,11.90
2022-10-13T00:03:02.379Z,11.90
2022-10-13T00:05:29.824Z,11.70
2022-10-13T00:07:57.330Z,11.80
2022-10-13T00:10:25.357Z,11.80
2022-10-13T00:12:52.482Z,11.80
2022-10-13T00:15:19.731Z,11.80
2022-10-13T00:17:46.402Z,11.80
2022-10-13T00:20:13.006Z,11.70
2022-10-13T00:22:39.617Z,11.80
2022-10-13T00:25:06.718Z,11.80
2022-10-13T00:27:33.312Z,11.80
2022-10-13T00:29:59.918Z,11.90
2022-10-13T00:32:26.504Z,11.90
2022-10-13T00:34:53.247Z,12.00
2022-10-13T00:37:19.826Z,12.10
2022-10-13T00:39:46.602Z,12.10
2022-10-13T00:42:13.754Z,12.10
2022-10-13T00:45:00.660Z,12.00
2022-10-13T00:47:33.069Z,12.00
2022-10-13T00:50:00.978Z,12.10
2022-10-13T00:52:28.578Z,12.20
2022-10-13T00:54:56.431Z,12.10
2022-10-13T00:57:23.529Z,12.10
2022-10-13T00:59:50.831Z,12.10
2022-10-13T01:02:17.737Z,12.20
2022-10-13T01:04:47.194Z,12.20
2022-10-13T01:07:17.528Z,12.20
2022-10-13T01:09:45.202Z,12.20
2022-10-13T01:12:37.390Z,12.20
2022-10-13T01:15:43.268Z,12.30
2022-10-13T01:18:20.647Z,12.40
2022-10-13T01:21:03.960Z,12.40
2022-10-13T01:24:01.290Z,12.40
2022-10-13T01:27:01.172Z,12.40
2022-10-13T01:29:58.554Z,12.40
2022-10-13T01:33:02.705Z,12.30
2022-10-13T01:35:41.162Z,12.30
2022-10-13T01:38:29.842Z,12.40
2022-10-13T01:41:13.687Z,12.40
2022-10-13T01:44:00.886Z,12.40
2022-10-13T01:46:34.945Z,12.30
2022-10-13T01:49:05.994Z,12.30
2022-10-13T01:51:33.918Z,12.20
2022-10-13T01:54:00.469Z,12.10
2022-10-13T01:56:27.245Z,12.10
2022-10-13T01:58:56.297Z,12.30
2022-10-13T02:01:42.202Z,12.20
2022-10-13T02:04:57.970Z,12.30
2022-10-13T02:07:33.741Z,12.30
2022-10-13T02:10:11.557Z,12.10
2022-10-13T02:12:52.750Z,12.10
2022-10-13T02:15:28.446Z,12.20
2022-10-13T02:17:56.059Z,12.30
2022-10-13T02:20:23.291Z,12.30
2022-10-13T02:22:57.478Z,12.20
2022-10-13T02:25:25.020Z,12.30
2022-10-13T02:27:52.818Z,12.30
2022-10-13T02:30:29.396Z,12.40
2022-10-13T02:32:56.105Z,12.30
2022-10-13T02:35:22.762Z,12.30
2022-10-13T02:37:49.302Z,12.50
2022-10-13T02:40:15.932Z,12.60
2022-10-13T02:42:42.578Z,12.60
2022-10-13T02:45:09.798Z,12.60
2022-10-13T02:47:36.510Z,12.50
2022-10-13T02:50:03.306Z,12.50
2022-10-13T02:52:29.854Z,12.30
2022-10-13T02:54:56.403Z,12.30
2022-10-13T02:57:23.084Z,12.30
2022-10-13T02:59:49.865Z,12.40
2022-10-13T03:02:17.348Z,12.40
2022-10-13T03:04:44.706Z,12.40
2022-10-13T03:07:11.785Z,12.40
2022-10-13T03:09:38.418Z,12.40
2022-10-13T03:12:05.188Z,12.30
2022-10-13T03:14:31.815Z,12.20
2022-10-13T03:16:58.694Z,12.20
2022-10-13T03:19:25.278Z,12.10
2022-10-13T03:21:51.818Z,12.10
2022-10-13T03:24:18.430Z,12.10
2022-10-13T03:26:44.973Z,12.10
2022-10-13T03:29:16.462Z,12.10
2022-10-13T03:31:43.488Z,12.20
2022-10-13T03:34:11.694Z,12.30
2022-10-13T03:36:38.418Z,12.40
2022-10-13T03:39:05.030Z,12.30
2022-10-13T03:41:31.595Z,12.20
2022-10-13T03:43:58.142Z,12.20
2022-10-13T03:46:28.230Z,12.20
2022-10-13T03:48:55.119Z,12.30
2022-10-13T03:51:22.949Z,12.30
2022-10-13T03:53:51.863Z,12.40
2022-10-13T03:56:21.883Z,12.50
2022-10-13T03:58:53.560Z,12.50
2022-10-13T04:01:25.012Z,12.50
2022-10-13T04:03:56.398Z,12.50
2022-10-13T04:06:24.355Z,12.40
2022-10-13T04:08:51.586Z,12.60
2022-10-13T04:11:18.861Z,12.60
2022-10-13T04:13:46.064Z,12.60
2022-10-13T04:16:24.817Z,12.60
2022-10-13T04:18:54.236Z,12.60
2022-10-13T04:21:21.813Z,12.50
2022-10-13T04:23:48.770Z,12.50
2022-10-13T04:26:21.889Z,12.50
2022-10-13T04:28:49.890Z,12.40
2022-10-13T04:31:17.098Z,12.40
2022-10-13T04:33:45.007Z,12.30
2022-10-13T04:36:13.878Z,12.40
2022-10-13T04:38:41.502Z,12.50
2022-10-13T04:41:09.885Z,12.60
2022-10-13T04:43:36.460Z,12.60
2022-10-13T04:46:03.972Z,12.60
2022-10-13T04:48:30.870Z,12.60
2022-10-13T04:51:18.446Z,12.60
2022-10-13T04:53:45.310Z,12.60
2022-10-13T04:56:14.530Z,12.70
2022-10-13T04:58:42.764Z,12.60
2022-10-13T05:01:20.340Z,12.60
2022-10-13T05:03:54.121Z,12.50
2022-10-13T05:06:29.644Z,12.50
2022-10-13T05:08:56.708Z,12.30
2022-10-13T05:11:24.230Z,12.20
2022-10-13T05:13:50.773Z,12.10
2022-10-13T05:16:19.479Z,11.90
2022-10-13T05:18:46.515Z,11.90
2022-10-13T05:21:16.123Z,11.90
2022-10-13T05:23:43.113Z,12.00
2022-10-13T05:26:12.315Z,12.00
2022-10-13T05:28:39.246Z,12.30
2022-10-13T05:31:14.621Z,12.20
2022-10-13T05:33:42.057Z,12.30
2022-10-13T05:36:14.597Z,12.30
2022-10-13T05:38:41.166Z,12.40
2022-10-13T05:41:13.669Z,12.60
2022-10-13T05:43:41.976Z,12.50
2022-10-13T05:46:10.115Z,12.60
2022-10-13T05:48:37.478Z,12.70
2022-10-13T05:51:10.909Z,12.70
2022-10-13T05:53:40.602Z,12.70
2022-10-13T05:56:12.503Z,12.70
2022-10-13T05:58:51.573Z,12.80
2022-10-13T06:01:22.135Z,12.60
2022-10-13T06:03:50.986Z,12.60
2022-10-13T06:06:17.570Z,12.80
2022-10-13T06:08:44.248Z,12.70
2022-10-13T06:11:10.901Z,12.70
2022-10-13T06:13:37.424Z,12.70
2022-10-13T06:16:04.271Z,12.90
2022-10-13T06:18:30.823Z,12.90
2022-10-13T06:20:57.760Z,12.90
2022-10-13T06:23:24.471Z,12.90
2022-10-13T06:25:52.653Z,12.90
2022-10-13T06:28:20.317Z,13.00
2022-10-13T06:30:53.465Z,13.00
2022-10-13T06:33:24.918Z,13.00
2022-10-13T06:35:52.381Z,13.20
2022-10-13T06:38:19.573Z,13.20
2022-10-13T06:40:46.122Z,13.10
2022-10-13T06:43:12.740Z,13.20
2022-10-13T06:45:39.302Z,13.30
2022-10-13T06:48:05.971Z,13.20
2022-10-13T06:50:33.146Z,13.10
2022-10-13T06:52:59.915Z,13.00
2022-10-13T06:55:26.509Z,13.00
2022-10-13T06:57:53.070Z,13.00
2022-10-13T07:00:19.757Z,12.90
2022-10-13T07:02:50.380Z,13.00
2022-10-13T07:05:17.054Z,13.30
2022-10-13T07:07:43.899Z,13.50
2022-10-13T07:10:10.486Z,13.50
2022-10-13T07:12:37.052Z,13.50
2022-10-13T07:15:03.756Z,13.60
2022-10-13T07:17:30.312Z,13.70
2022-10-13T07:19:57.973Z,13.80
2022-10-13T07:22:24.986Z,13.80
2022-10-13T07:24:51.518Z,13.80
2022-10-13T07:27:18.085Z,13.80
2022-10-13T07:29:44.635Z,14.00
2022-10-13T07:32:11.239Z,14.20
2022-10-13T07:34:37.850Z,14.30
2022-10-13T07:37:04.412Z,14.50
2022-10-13T07:39:31.049Z,14.60
2022-10-13T07:41:57.654Z,14.60
2022-10-13T07:44:24.237Z,14.80
2022-10-13T07:46:50.820Z,14.80
2022-10-13T07:49:17.429Z,14.90
2022-10-13T07:51:44.463Z,15.00
2022-10-13T07:54:11.354Z,15.10
2022-10-13T07:56:38.316Z,14.90
2022-10-13T07:59:05.255Z,14.80
2022-10-13T08:01:32.092Z,14.80
2022-10-13T08:03:59.172Z,14.90
2022-10-13T08:06:25.778Z,14.90
2022-10-13T08:08:53.294Z,14.80
2022-10-13T08:11:19.970Z,14.90
2022-10-13T08:13:51.473Z,14.90
2022-10-13T08:16:18.977Z,14.90
2022-10-13T08:18:45.942Z,15.00
2022-10-13T08:24:01.187Z,15.10
2022-10-13T08:26:28.913Z,15.30
2022-10-13T08:29:16.804Z,15.40
2022-10-13T08:31:42.946Z,15.50
2022-10-13T08:34:10.826Z,15.80
2022-10-13T08:36:38.376Z,16.00
2022-10-13T08:39:05.204Z,16.00
2022-10-13T08:41:37.113Z,16.10
2022-10-13T08:44:59.293Z,16.30
2022-10-13T08:47:16.932Z,16.40
2022-10-13T08:49:43.848Z,16.50
2022-10-13T08:52:20.790Z,16.30
2022-10-13T08:54:47.862Z,16.30
2022-10-13T08:57:14.658Z,16.40
2022-10-13T08:59:41.261Z,16.40
2022-10-13T09:02:22.234Z,16.20
2022-10-13T09:04:52.293Z,16.20
2022-10-13T09:07:23.048Z,16.20
2022-10-13T09:09:51.940Z,16.20
2022-10-13T09:12:24.257Z,16.10
2022-10-13T09:15:09.600Z,16.00
2022-10-13T09:17:38.536Z,16.00
2022-10-13T09:20:18.468Z,15.90
2022-10-13T09:22:59.784Z,15.90
2022-10-13T09:25:26.324Z,16.00
2022-10-13T09:28:08.775Z,16.00
2022-10-13T09:30:48.774Z,15.90
2022-10-13T09:33:20.549Z,15.90
2022-10-13T09:36:00.944Z,16.10
2022-10-13T09:38:28.074Z,16.00
2022-10-13T09:41:04.242Z,16.00
2022-10-13T09:43:33.848Z,15.90
2022-10-13T09:46:02.740Z,16.00
2022-10-13T09:48:34.698Z,16.00
2022-10-13T09:51:01.296Z,16.10
2022-10-13T09:53:38.150Z,16.20
2022-10-13T09:56:22.458Z,16.40
2022-10-13T09:59:03.461Z,16.40
2022-10-13T10:01:34.933Z,16.60
2022-10-13T10:04:06.539Z,16.70
2022-10-13T10:06:34.730Z,16.70
2022-10-13T10:09:34.002Z,16.80
2022-10-13T10:12:02.819Z,16.80
2022-10-13T10:14:33.916Z,16.80
2022-10-13T10:17:06.638Z,16.80
2022-10-13T10:20:03.829Z,16.90
2022-10-13T10:22:43.903Z,16.80
2022-10-13T10:25:44.665Z,16.60
2022-10-13T10:28:46.561Z,16.70
2022-10-13T10:31:39.026Z,16.70
2022-10-13T10:34:27.639Z,16.50
2022-10-13T10:37:29.513Z,16.30
2022-10-13T10:40:27.998Z,16.20
2022-10-13T10:43:13.849Z,15.90
2022-10-13T10:45:40.880Z,15.60
2022-10-13T10:48:19.094Z,15.50
2022-10-13T10:50:46.594Z,15.30
2022-10-13T10:53:37.483Z,15.10
2022-10-13T10:56:26.757Z,15.00
2022-10-13T10:59:07.769Z,14.70
2022-10-13T11:02:06.852Z,14.60
2022-10-13T11:04:50.095Z,14.60
2022-10-13T11:07:22.854Z,14.50
2022-10-13T11:09:50.358Z,14.50
2022-10-13T11:12:20.516Z,14.50
2022-10-13T11:15:05.808Z,14.50
2022-10-13T11:17:42.251Z,14.70
2022-10-13T11:20:20.713Z,14.90
2022-10-13T11:22:59.519Z,15.20
2022-10-13T11:25:41.872Z,15.50
2022-10-13T11:28:23.776Z,15.80
2022-10-13T11:30:57.672Z,16.00
2022-10-13T11:33:39.227Z,16.00
2022-10-13T11:36:35.240Z,15.90
2022-10-13T11:39:27.854Z,15.80
2022-10-13T11:42:40.681Z,15.80
2022-10-13T11:45:26.431Z,15.90
2022-10-13T11:48:05.696Z,15.90
2022-10-13T11:50:55.471Z,16.40
2022-10-13T11:53:27.628Z,16.50
2022-10-13T11:56:01.288Z,16.80
2022-10-13T11:58:33.134Z,17.10
2022-10-13T12:01:12.987Z,17.00
2022-10-13T12:03:44.931Z,16.50
2022-10-13T12:06:33.929Z,16.30
2022-10-13T12:09:14.749Z,16.20
2022-10-13T12:11:41.622Z,16.20
2022-10-13T12:14:31.628Z,16.30
2022-10-13T12:16:59.796Z,16.60
2022-10-13T12:19:29.588Z,16.60
2022-10-13T12:21:59.172Z,16.40
2022-10-13T12:24:28.802Z,16.30
2022-10-13T12:26:56.398Z,16.40
2022-10-13T12:29:26.868Z,16.30
2022-10-13T12:31:54.773Z,16.50
2022-10-13T12:34:31.949Z,16.40
2022-10-13T12:37:31.011Z,16.40
2022-10-13T12:39:58.601Z,16.30
2022-10-13T12:42:37.717Z,16.20
2022-10-13T12:45:05.262Z,16.00
2022-10-13T12:47:49.399Z,16.00
2022-10-13T12:50:24.781Z,15.90
2022-10-13T12:53:09.809Z,15.90
2022-10-13T12:55:55.557Z,16.00
2022-10-13T12:58:27.179Z,16.10
2022-10-13T13:00:59.852Z,16.10
2022-10-13T13:03:29.334Z,16.10
2022-10-13T13:06:14.742Z,16.00
2022-10-13T13:08:43.137Z,16.00
2022-10-13T13:11:23.369Z,15.80
2022-10-13T13:13:50.081Z,15.80
2022-10-13T13:16:18.275Z,15.70
2022-10-13T13:18:46.733Z,15.60
2022-10-13T13:21:16.132Z,15.50
2022-10-13T13:23:50.981Z,15.50
2022-10-13T13:26:22.465Z,15.40
2022-10-13T13:28:54.022Z,15.50
2022-10-13T13:31:22.872Z,15.40
2022-10-13T13:33:49.646Z,15.40
2022-10-13T13:36:19.625Z,15.30
2022-10-13T13:38:46.563Z,15.20
2022-10-13T13:41:13.590Z,15.10
2022-10-13T13:43:40.857Z,15.10
2022-10-13T13:46:14.127Z,15.10
2022-10-13T13:48:40.695Z,15.20
2022-10-13T13:51:09.494Z,15.30
2022-10-13T13:53:36.424Z,15.50
2022-10-13T13:56:03.886Z,15.70
2022-10-13T13:58:30.436Z,15.70
2022-10-13T14:00:58.538Z,15.60
2022-10-13T14:03:25.107Z,15.80
2022-10-13T14:05:51.733Z,15.80
2022-10-13T14:08:18.262Z,15.80
2022-10-13T14:10:44.791Z,15.80
2022-10-13T14:13:11.364Z,15.80
2022-10-13T14:15:37.913Z,15.90
2022-10-13T14:18:04.481Z,15.90
2022-10-13T14:20:31.082Z,15.80
2022-10-13T14:22:57.625Z,15.70
2022-10-13T14:25:24.490Z,15.70
2022-10-13T14:27:51.198Z,15.60
2022-10-13T14:30:17.854Z,15.30
2022-10-13T14:32:44.483Z,15.20
2022-10-13T14:35:11.232Z,15.20
2022-10-13T14:37:38.325Z,15.20
2022-10-13T14:40:05.784Z,15.10
2022-10-13T14:42:32.327Z,15.20
2022-10-13T14:44:58.901Z,15.10
2022-10-13T14:47:25.492Z,15.20
2022-10-13T14:49:52.018Z,15.00
2022-10-13T14:52:18.569Z,14.90
2022-10-13T14:54:45.346Z,15.00
2022-10-13T14:57:15.609Z,15.00
2022-10-13T14:59:42.558Z,14.90
2022-10-13T15:02:13.742Z,14.50
2022-10-13T15:04:40.309Z,14.40
2022-10-13T15:07:06.875Z,14.30
2022-10-13T15:09:45.341Z,14.20
2022-10-13T15:12:19.482Z,14.10
2022-10-13T15:14:46.287Z,14.10
2022-10-13T15:17:12.839Z,14.00
2022-10-13T15:19:39.397Z,14.00
2022-10-13T15:22:05.984Z,14.00
2022-10-13T15:24:32.551Z,14.00
2022-10-13T15:26:59.099Z,13.90
2022-10-13T15:29:25.667Z,14.10
2022-10-13T15:31:52.234Z,13.90
2022-10-13T15:34:18.772Z,14.00
2022-10-13T15:36:45.521Z,13.90
2022-10-13T15:39:12.069Z,14.00
2022-10-13T15:41:38.610Z,14.00
2022-10-13T15:44:05.155Z,14.00
2022-10-13T15:46:31.743Z,14.00
2022-10-13T15:48:59.827Z,14.10
2022-10-13T15:51:26.926Z,14.10
2022-10-13T15:53:55.017Z,14.10
2022-10-13T15:56:22.003Z,14.10
2022-10-13T15:58:48.664Z,14.10
2022-10-13T16:01:15.427Z,14.10
2022-10-13T16:03:42.147Z,14.10
2022-10-13T16:06:10.585Z,14.10
2022-10-13T16:08:39.464Z,14.10
2022-10-13T16:11:10.352Z,14.00
2022-10-13T16:13:36.942Z,14.00
2022-10-13T16:16:03.976Z,14.00
2022-10-13T16:18:32.099Z,14.00
2022-10-13T16:20:58.671Z,13.90
2022-10-13T16:23:25.840Z,13.90
2022-10-13T16:25:52.410Z,13.90
2022-10-13T16:28:19.137Z,14.00
2022-10-13T16:30:45.744Z,14.00
2022-10-13T16:33:12.329Z,14.00
2022-10-13T16:35:38.927Z,13.90
2022-10-13T16:38:05.538Z,14.00
2022-10-13T16:40:32.406Z,14.00
2022-10-13T16:42:58.966Z,14.00
2022-10-13T16:45:41.210Z,14.00
2022-10-13T16:48:12.837Z,14.00
2022-10-13T16:50:39.426Z,14.00
2022-10-13T16:53:05.982Z,14.00
2022-10-13T16:55:32.551Z,14.00
2022-10-13T16:57:59.134Z,13.90
2022-10-13T17:00:26.041Z,13.80
2022-10-13T17:02:53.004Z,13.70
2022-10-13T17:05:19.542Z,13.70
2022-10-13T17:07:46.176Z,13.70
2022-10-13T17:10:12.729Z,13.70
2022-10-13T17:12:39.323Z,13.80
2022-10-13T17:15:06.395Z,13.80
2022-10-13T17:17:32.953Z,13.70
2022-10-13T17:19:59.555Z,13.70
2022-10-13T17:22:26.194Z,13.70
2022-10-13T17:24:52.734Z,13.70
2022-10-13T17:27:19.732Z,13.60
2022-10-13T17:29:46.731Z,13.70
2022-10-13T17:32:13.367Z,13.70
2022-10-13T17:34:39.919Z,13.80
2022-10-13T17:37:06.486Z,13.90
2022-10-13T17:39:33.036Z,13.90
2022-10-13T17:41:59.611Z,13.90
2022-10-13T17:44:26.229Z,13.80
2022-10-13T17:46:52.873Z,13.80
2022-10-13T17:49:19.491Z,13.70
2022-10-13T17:51:49.349Z,13.70
2022-10-13T17:54:16.824Z,13.60
2022-10-13T17:56:45.069Z,13.60
2022-10-13T17:59:12.099Z,13.50
2022-10-13T18:01:38.805Z,13.60
2022-10-13T18:04:11.771Z,13.50
2022-10-13T18:06:40.479Z,13.40
2022-10-13T18:09:09.724Z,13.50
2022-10-13T18:11:37.030Z,13.50
2022-10-13T18:14:03.748Z,13.50
2022-10-13T18:16:30.573Z,13.40
2022-10-13T18:18:57.141Z,13.40
2022-10-13T18:21:27.435Z,13.30
2022-10-13T18:23:59.309Z,13.30
2022-10-13T18:26:26.977Z,13.30
2022-10-13T18:28:54.415Z,13.20
2022-10-13T18:31:29.435Z,13.30
2022-10-13T18:33:58.094Z,13.30
2022-10-13T18:36:28.228Z,13.30
2022-10-13T18:38:59.761Z,13.20
2022-10-13T18:41:26.338Z,13.20
2022-10-13T18:43:53.243Z,13.20
2022-10-13T18:46:19.881Z,13.10
2022-10-13T18:48:46.451Z,13.10
2022-10-13T18:51:14.872Z,13.10
2022-10-13T18:53:43.962Z,13.00
2022-10-13T18:56:17.801Z,13.00
2022-10-13T18:58:44.614Z,13.00
2022-10-13T19:01:14.235Z,13.00
2022-10-13T19:03:42.406Z,13.00
2022-10-13T19:06:11.231Z,13.00
2022-10-13T19:08:38.443Z,13.00
2022-10-13T19:11:31.945Z,13.00
2022-10-13T19:14:00.028Z,13.00
2022-10-13T19:16:29.109Z,13.00
2022-10-13T19:18:56.079Z,13.00
2022-10-13T19:21:23.626Z,13.00
2022-10-13T19:23:50.786Z,13.00
2022-10-13T19:26:20.113Z,12.90
2022-10-13T19:28:46.911Z,12.90
2022-10-13T19:31:20.222Z,13.00
2022-10-13T19:33:48.064Z,13.00
2022-10-13T19:36:30.643Z,12.90
2022-10-13T19:38:57.918Z,13.00
2022-10-13T19:41:25.278Z,12.90
2022-10-13T19:43:51.860Z,12.90
2022-10-13T19:46:18.503Z,12.90
2022-10-13T19:48:45.153Z,13.00
2022-10-13T19:51:12.729Z,13.00
2022-10-13T19:53:39.749Z,12.90
2022-10-13T19:56:06.948Z,12.90
2022-10-13T19:58:34.200Z,12.90
2022-10-13T20:01:06.753Z,12.90
2022-10-13T20:03:33.599Z,12.90
2022-10-13T20:06:04.557Z,12.90
2022-10-13T20:08:31.200Z,12.90
2022-10-13T20:10:57.852Z,12.90
2022-10-13T20:13:24.424Z,12.90
2022-10-13T20:15:50.978Z,12.80
2022-10-13T20:18:17.828Z,12.90
2022-10-13T20:20:44.584Z,13.00
2022-10-13T20:23:11.194Z,13.10
2022-10-13T20:25:38.213Z,13.00
2022-10-13T20:28:05.970Z,12.90
2022-10-13T20:30:33.309Z,12.80
2022-10-13T20:33:00.310Z,12.80
2022-10-13T20:35:26.870Z,12.80
2022-10-13T20:37:53.465Z,12.80
2022-10-13T20:40:20.046Z,12.70
2022-10-13T20:42:52.939Z,12.70
2022-10-13T20:45:19.775Z,12.70
2022-10-13T20:47:46.863Z,12.70
2022-10-13T20:50:13.701Z,12.70
2022-10-13T20:52:40.307Z,12.80
2022-10-13T20:55:07.075Z,12.70
2022-10-13T20:57:33.746Z,12.70
2022-10-13T21:00:00.307Z,12.70
2022-10-13T21:02:26.882Z,12.70
2022-10-13T21:04:53.444Z,12.70
2022-10-13T21:07:20.370Z,12.70
2022-10-13T21:09:51.458Z,12.70
2022-10-13T21:12:20.194Z,12.70
2022-10-13T21:14:46.730Z,12.60
2022-10-13T21:17:13.246Z,12.70
2022-10-13T21:19:39.775Z,12.70
2022-10-13T21:22:06.324Z,12.70
2022-10-13T21:24:32.934Z,12.70
2022-10-13T21:26:59.491Z,12.70
2022-10-13T21:29:26.085Z,12.60
2022-10-13T21:31:52.930Z,12.70
2022-10-13T21:34:19.559Z,12.70
2022-10-13T21:36:46.142Z,12.70
2022-10-13T21:39:12.798Z,12.80
2022-10-13T21:41:39.334Z,12.70
2022-10-13T21:44:05.887Z,12.70
2022-10-13T21:46:34.645Z,12.80
2022-10-13T21:49:03.515Z,12.70
2022-10-13T21:51:38.231Z,12.80
2022-10-13T21:54:07.710Z,12.80
2022-10-13T21:56:34.760Z,12.70
2022-10-13T21:59:01.524Z,12.80
2022-10-13T22:01:28.284Z,12.80
2022-10-13T22:04:00.663Z,12.70
2022-10-13T22:06:28.574Z,12.70
2022-10-13T22:08:56.991Z,12.70
2022-10-13T22:11:26.311Z,12.70
2022-10-13T22:13:52.917Z,12.80
2022-10-13T22:16:22.163Z,12.80
2022-10-13T22:18:52.100Z,12.80
2022-10-13T22:21:22.239Z,12.80
2022-10-13T22:23:49.082Z,12.90
2022-10-13T22:26:17.409Z,12.90
2022-10-13T22:28:44.387Z,12.90
2022-10-13T22:31:12.675Z,13.00
2022-10-13T22:33:40.802Z,13.00
2022-10-13T22:36:09.008Z,13.00
2022-10-13T22:38:35.954Z,13.00
2022-10-13T22:41:04.265Z,13.00
2022-10-13T22:43:30.993Z,13.00
2022-10-13T22:45:57.818Z,13.00
2022-10-13T22:48:24.397Z,13.00
2022-10-13T22:50:50.969Z,13.00
2022-10-13T22:53:17.597Z,13.00
2022-10-13T22:55:44.149Z,13.00
2022-10-13T22:58:10.783Z,13.00
2022-10-13T23:00:38.790Z,13.00
2022-10-13T23:03:06.111Z,13.00
2022-10-13T23:05:32.961Z,13.00
2022-10-13T23:07:59.562Z,12.90
2022-10-13T23:10:26.112Z,13.00
2022-10-13T23:12:52.654Z,13.00
2022-10-13T23:15:19.204Z,13.00
2022-10-13T23:17:46.008Z,13.00
2022-10-13T23:20:12.593Z,13.00
2022-10-13T23:22:39.121Z,13.00
2022-10-13T23:25:06.038Z,13.00
2022-10-13T23:27:32.594Z,13.00
2022-10-13T23:29:59.126Z,13.00
2022-10-13T23:32:25.691Z,13.00
2022-10-13T23:34:52.222Z,13.00
2022-10-13T23:37:19.060Z,12.90
2022-10-13T23:39:45.687Z,13.00
2022-10-13T23:42:12.226Z,13.00
2022-10-13T23:44:38.973Z,12.90
2022-10-13T23:47:05.537Z,12.90
2022-10-13T23:49:32.093Z,12.90
2022-10-13T23:51:58.634Z,12.90
2022-10-13T23:54:25.188Z,12.90
2022-10-13T23:56:51.713Z,12.90
2022-10-13T23:59:18.320Z,12.90
